Time;durP1;ratioP1;P1;durP2;ratioP2;P2;SDS_P1;SDS_P2;PMS_P1;PMS_P2;Temp;Humidity;BMP_temperature;BMP_pressure;BME280_temperature;BME280_humidity;BME280_pressure;Samples;Min_cycle;Max_cycle;Signal;HPM_P1;HPM_P2
2022/04/03 00:01:04;;;;;;;2.50;1.50;;;-0.50;99.90;;;;;;4971176;28;20045;-66
2022/04/03 00:03:30;;;;;;;2.67;1.42;;;-0.50;99.90;;;;;;4989323;28;20042;-66
2022/04/03 00:05:56;;;;;;;5.68;1.30;;;-0.40;99.90;;;;;;4987094;28;20132;-66
2022/04/03 00:08:21;;;;;;;3.65;1.33;;;-0.30;99.90;;;;;;4990604;28;20520;-66
2022/04/03 00:10:47;;;;;;;4.03;1.33;;;-0.30;99.90;;;;;;4988123;28;20373;-66
2022/04/03 00:13:13;;;;;;;2.97;1.80;;;-0.20;99.90;;;;;;4987723;28;20055;-66
2022/04/03 00:15:41;;;;;;;9.57;2.42;;;-0.20;99.90;;;;;;4987582;28;20049;-66
2022/04/03 00:18:08;;;;;;;4.47;1.50;;;-0.20;99.90;;;;;;4989476;28;20051;-66
2022/04/03 00:20:36;;;;;;;2.80;1.13;;;-0.30;99.90;;;;;;5007224;28;20472;-66
2022/04/03 00:23:02;;;;;;;1.75;1.20;;;-0.30;99.90;;;;;;5006253;28;20054;-67
2022/04/03 00:25:29;;;;;;;1.85;1.20;;;-0.30;99.90;;;;;;5008858;28;20084;-67
2022/04/03 00:27:55;;;;;;;1.77;1.38;;;-0.30;99.90;;;;;;5000514;28;20109;-66
2022/04/03 00:30:21;;;;;;;2.35;1.30;;;-0.40;99.90;;;;;;4987217;28;20392;-66
2022/04/03 00:32:46;;;;;;;2.53;1.50;;;-0.40;99.90;;;;;;4988391;28;20038;-66
2022/04/03 00:35:13;;;;;;;3.90;1.42;;;-0.40;99.90;;;;;;4987687;28;20148;-66
2022/04/03 00:37:39;;;;;;;2.38;1.00;;;-0.50;99.90;;;;;;4987598;28;20050;-66
2022/04/03 00:40:05;;;;;;;1.20;1.05;;;-0.50;99.90;;;;;;4985902;28;20504;-66
2022/04/03 00:42:37;;;;;;;2.47;1.20;;;-0.40;99.90;;;;;;4993214;28;20045;-66
2022/04/03 00:45:06;;;;;;;4.13;1.20;;;-0.50;99.90;;;;;;5005583;28;20537;-66
2022/04/03 00:47:33;;;;;;;2.73;1.53;;;-0.50;99.90;;;;;;5002464;28;20494;-67
2022/04/03 00:49:59;;;;;;;1.63;1.25;;;-0.50;99.90;;;;;;5022993;28;20384;-66
2022/04/03 00:52:25;;;;;;;3.22;1.30;;;-0.50;99.90;;;;;;5004953;28;20046;-66
2022/04/03 00:54:51;;;;;;;2.83;1.60;;;-0.50;99.90;;;;;;5022992;28;20399;-66
2022/04/03 00:57:18;;;;;;;3.58;1.40;;;-0.50;99.90;;;;;;5004908;28;20069;-66
2022/04/03 00:59:45;;;;;;;5.97;1.52;;;-0.60;99.90;;;;;;5008022;28;20045;-67
2022/04/03 01:02:10;;;;;;;3.58;1.48;;;-0.60;99.90;;;;;;4993569;28;20046;-66
2022/04/03 01:04:38;;;;;;;6.63;1.42;;;-0.60;99.90;;;;;;4987900;28;20046;-66
2022/04/03 01:07:04;;;;;;;5.07;1.20;;;-0.60;99.90;;;;;;4988185;28;20070;-66
2022/04/03 01:09:30;;;;;;;4.75;1.35;;;-0.60;99.90;;;;;;4986820;28;20050;-67
2022/04/03 01:11:56;;;;;;;4.28;1.50;;;-0.60;99.90;;;;;;4986510;28;20492;-66
2022/04/03 01:14:41;;;;;;;2.30;1.52;;;-0.50;99.90;;;;;;4969672;28;20042;-66
2022/04/03 01:17:10;;;;;;;3.45;1.65;;;-0.40;99.90;;;;;;4988361;28;20515;-66
2022/04/03 01:19:37;;;;;;;7.15;1.30;;;-0.40;99.90;;;;;;5002832;28;20049;-66
2022/04/03 01:22:04;;;;;;;2.53;1.42;;;-0.40;99.90;;;;;;5023305;28;20543;-67
2022/04/03 01:24:30;;;;;;;5.18;1.70;;;-0.40;99.90;;;;;;5006662;28;20104;-66
2022/04/03 01:26:56;;;;;;;4.00;1.40;;;-0.40;99.90;;;;;;5005259;28;20420;-67
2022/04/03 01:29:26;;;;;;;5.45;1.50;;;-0.50;99.90;;;;;;4993823;28;20042;-66
2022/04/03 01:31:52;;;;;;;1.60;1.37;;;-0.50;99.90;;;;;;4986554;28;20141;-66
2022/04/03 01:34:19;;;;;;;4.75;1.35;;;-0.60;99.90;;;;;;4986938;28;20061;-67
2022/04/03 01:36:45;;;;;;;1.70;1.60;;;-0.60;99.90;;;;;;4985793;28;20086;-66
2022/04/03 01:39:11;;;;;;;1.70;1.55;;;-0.70;99.90;;;;;;4995124;28;20042;-66
2022/04/03 01:41:41;;;;;;;6.03;1.60;;;-0.60;99.90;;;;;;5002839;28;20056;-66
2022/04/03 01:44:09;;;;;;;2.60;1.35;;;-0.70;99.90;;;;;;5005797;28;20133;-66
2022/04/03 01:46:36;;;;;;;4.80;1.60;;;-0.70;99.90;;;;;;5005773;28;20054;-66
2022/04/03 01:49:04;;;;;;;3.00;1.48;;;-0.60;99.90;;;;;;5004493;28;20077;-66
2022/04/03 01:51:31;;;;;;;4.40;1.70;;;-0.60;99.90;;;;;;5007503;28;20054;-66
2022/04/03 01:53:56;;;;;;;5.78;1.25;;;-0.50;99.90;;;;;;5004035;28;20053;-66
2022/04/03 01:56:22;;;;;;;3.33;1.63;;;-0.40;99.90;;;;;;5007385;28;20049;-66
2022/04/03 01:58:48;;;;;;;8.85;1.65;;;-0.40;99.90;;;;;;5004495;28;20058;-66
2022/04/03 02:01:13;;;;;;;4.97;1.48;;;-0.30;99.90;;;;;;5001704;28;20042;-66
2022/04/03 02:03:39;;;;;;;2.88;1.40;;;-0.30;99.90;;;;;;4986580;28;20046;-66
2022/04/03 02:06:05;;;;;;;1.30;1.20;;;-0.20;99.90;;;;;;4985340;28;20540;-67
2022/04/03 02:08:31;;;;;;;4.22;1.33;;;-0.20;99.90;;;;;;4986440;28;20053;-66
2022/04/03 02:10:58;;;;;;;1.70;1.58;;;-0.20;99.90;;;;;;4973930;28;20046;-67
2022/04/03 02:13:24;;;;;;;4.20;1.90;;;-0.10;99.90;;;;;;4999678;28;20049;-66
2022/04/03 02:15:50;;;;;;;3.97;1.88;;;-0.10;99.90;;;;;;4997408;28;20062;-66
2022/04/03 02:18:17;;;;;;;2.17;1.92;;;0.00;99.90;;;;;;4999949;28;20102;-66
2022/04/03 02:20:43;;;;;;;6.50;2.08;;;0.00;99.90;;;;;;4972053;28;20464;-66
2022/04/03 02:23:09;;;;;;;4.22;1.95;;;0.10;99.90;;;;;;4986805;28;20054;-66
2022/04/03 02:25:34;;;;;;;9.60;1.88;;;0.10;99.90;;;;;;4986026;28;20523;-66
2022/04/03 02:28:00;;;;;;;3.97;1.40;;;0.20;99.90;;;;;;4984756;28;20062;-66
2022/04/03 02:30:26;;;;;;;2.33;1.45;;;0.30;99.90;;;;;;4985562;28;20050;-66
2022/04/03 02:32:52;;;;;;;6.60;1.75;;;0.40;99.90;;;;;;4986465;28;20042;-66
2022/04/03 02:35:18;;;;;;;5.18;2.10;;;0.50;99.90;;;;;;4987577;28;20066;-67
2022/04/03 02:37:44;;;;;;;4.13;2.28;;;0.60;99.90;;;;;;4985589;28;20054;-66
2022/04/03 02:40:13;;;;;;;4.15;1.75;;;0.60;99.90;;;;;;4987779;28;20038;-66
2022/04/03 02:42:39;;;;;;;3.65;2.10;;;0.60;99.90;;;;;;4988122;28;20074;-66
2022/04/03 02:45:06;;;;;;;7.60;2.03;;;0.70;99.90;;;;;;5001329;28;20050;-66
2022/04/03 02:47:35;;;;;;;3.38;1.98;;;0.80;99.90;;;;;;4970274;28;20050;-66
2022/04/03 02:50:01;;;;;;;6.38;2.00;;;1.00;99.90;;;;;;4985202;28;20076;-66
2022/04/03 02:52:27;;;;;;;2.28;1.83;;;1.10;99.90;;;;;;4993976;28;20050;-66
2022/04/03 02:54:53;;;;;;;3.33;1.02;;;1.10;99.90;;;;;;5003173;28;20088;-66
2022/04/03 02:57:18;;;;;;;0.98;0.98;;;1.10;99.90;;;;;;5005427;28;20046;-66
2022/04/03 02:59:45;;;;;;;1.65;1.30;;;1.10;99.90;;;;;;5003998;28;20085;-66
2022/04/03 03:02:11;;;;;;;4.80;1.00;;;1.10;99.90;;;;;;4995535;28;20034;-66
2022/04/03 03:04:38;;;;;;;1.50;1.10;;;1.10;99.90;;;;;;4986333;28;20484;-66
2022/04/03 03:07:08;;;;;;;1.85;1.13;;;1.20;99.90;;;;;;5017011;28;20522;-67
2022/04/03 03:09:34;;;;;;;1.38;1.10;;;1.10;99.90;;;;;;4985597;28;20058;-66
2022/04/03 03:12:00;;;;;;;3.53;1.65;;;1.20;99.90;;;;;;4983670;28;20038;-66
2022/04/03 03:14:27;;;;;;;3.05;1.20;;;1.10;99.90;;;;;;5000821;28;20112;-66
2022/04/03 03:16:53;;;;;;;3.97;0.90;;;1.10;99.90;;;;;;5007373;28;20129;-66
2022/04/03 03:19:19;;;;;;;3.80;1.13;;;1.20;99.90;;;;;;5008619;28;20484;-66
2022/04/03 03:21:45;;;;;;;5.57;1.50;;;1.30;99.90;;;;;;5008376;28;20085;-66
2022/04/03 03:24:11;;;;;;;2.78;0.77;;;1.40;99.90;;;;;;5005468;28;20045;-66
2022/04/03 03:26:37;;;;;;;4.97;0.50;;;1.50;99.90;;;;;;5009016;28;20211;-66
2022/04/03 03:29:03;;;;;;;1.08;0.50;;;1.50;99.90;;;;;;4990235;28;20050;-67
2022/04/03 03:31:29;;;;;;;2.03;0.40;;;1.60;99.90;;;;;;5002578;28;20116;-66
2022/04/03 03:33:55;;;;;;;0.85;0.40;;;1.70;99.90;;;;;;4991043;28;20049;-66
2022/04/03 03:36:21;;;;;;;0.40;0.40;;;1.80;99.90;;;;;;5008377;28;20643;-66
2022/04/03 03:38:46;;;;;;;1.80;0.45;;;1.80;99.90;;;;;;5008425;28;20085;-67
2022/04/03 03:41:14;;;;;;;2.35;0.52;;;1.80;99.90;;;;;;5007809;28;20061;-67
2022/04/03 03:43:40;;;;;;;1.98;0.70;;;1.80;99.90;;;;;;5008342;28;20073;-66
2022/04/03 03:46:06;;;;;;;1.13;0.63;;;1.80;99.90;;;;;;5004355;28;20045;-66
2022/04/03 03:48:32;;;;;;;1.75;0.52;;;1.80;99.90;;;;;;5008337;28;20041;-67
2022/04/03 03:50:57;;;;;;;2.25;0.50;;;1.80;99.90;;;;;;5006103;28;20046;-66
2022/04/03 03:53:23;;;;;;;6.35;0.77;;;1.70;99.90;;;;;;5008376;28;20050;-66
2022/04/03 03:55:49;;;;;;;2.08;0.63;;;1.70;99.90;;;;;;4997071;28;20074;-66
2022/04/03 03:58:15;;;;;;;2.03;0.60;;;1.70;99.90;;;;;;4988377;28;20046;-66
2022/04/03 04:00:41;;;;;;;3.13;0.60;;;1.60;99.90;;;;;;4988091;28;20058;-66
2022/04/03 04:03:07;;;;;;;2.78;0.77;;;1.60;99.90;;;;;;5019617;28;20046;-66
2022/04/03 04:05:33;;;;;;;0.68;0.65;;;1.60;99.90;;;;;;5002980;28;20050;-66
2022/04/03 04:07:59;;;;;;;5.10;0.95;;;1.60;99.90;;;;;;4986618;28;20523;-66
2022/04/03 04:10:25;;;;;;;4.93;0.88;;;1.60;99.90;;;;;;4988053;28;20137;-66
2022/04/03 04:12:50;;;;;;;3.33;1.20;;;1.60;99.90;;;;;;4987731;28;20049;-66
2022/04/03 04:15:16;;;;;;;10.55;2.72;;;1.60;99.90;;;;;;4988208;28;20051;-67
2022/04/03 04:17:47;;;;;;;1.38;0.65;;;1.60;99.90;;;;;;5003926;28;20050;-66
2022/04/03 04:20:15;;;;;;;4.00;1.10;;;1.60;99.90;;;;;;5008293;28;20060;-67
2022/04/03 04:22:42;;;;;;;5.75;0.63;;;1.70;99.90;;;;;;5008835;28;20224;-66
2022/04/03 04:25:11;;;;;;;1.75;0.80;;;1.60;99.90;;;;;;5006522;28;20156;-66
2022/04/03 04:27:38;;;;;;;3.15;0.70;;;1.60;99.90;;;;;;4995085;28;20207;-66
2022/04/03 04:30:04;;;;;;;2.85;0.70;;;1.60;99.90;;;;;;5018721;28;20050;-66
2022/04/03 04:32:32;;;;;;;3.58;0.75;;;1.50;99.90;;;;;;4988058;28;20619;-66
2022/04/03 04:34:57;;;;;;;1.80;0.45;;;1.40;99.90;;;;;;4986351;28;20050;-66
2022/04/03 04:37:24;;;;;;;1.73;0.50;;;1.30;99.90;;;;;;4988082;28;20050;-66
2022/04/03 04:39:50;;;;;;;2.17;0.60;;;1.30;99.90;;;;;;4987029;28;20511;-66
2022/04/03 04:42:16;;;;;;;3.38;0.80;;;1.30;99.90;;;;;;4987639;28;20077;-66
2022/04/03 04:44:43;;;;;;;2.63;0.57;;;1.40;99.90;;;;;;4987753;28;20481;-66
2022/04/03 04:47:09;;;;;;;2.35;0.70;;;1.40;99.90;;;;;;4988366;28;20860;-66
2022/04/03 04:49:35;;;;;;;8.80;1.02;;;1.40;99.90;;;;;;5001621;28;20061;-66
2022/04/03 04:52:01;;;;;;;3.72;0.90;;;1.40;99.90;;;;;;4982679;28;20157;-66
2022/04/03 04:54:27;;;;;;;2.08;1.02;;;1.40;99.90;;;;;;4967812;28;20519;-66
2022/04/03 04:56:56;;;;;;;6.65;0.73;;;1.40;99.90;;;;;;5000407;28;20441;-66
2022/04/03 04:59:21;;;;;;;4.35;0.70;;;1.40;99.90;;;;;;5000977;28;20504;-66
2022/04/03 05:01:48;;;;;;;3.05;0.68;;;1.30;99.90;;;;;;4977408;28;20133;-66
2022/04/03 05:04:14;;;;;;;3.22;0.90;;;1.30;99.90;;;;;;4986665;28;20046;-66
2022/04/03 05:06:40;;;;;;;3.33;0.60;;;1.30;99.90;;;;;;4987249;28;20400;-66
2022/04/03 05:09:06;;;;;;;2.45;0.50;;;1.30;99.90;;;;;;4987613;28;20057;-67
2022/04/03 05:11:33;;;;;;;0.40;0.40;;;1.20;99.90;;;;;;4987460;28;20417;-67
2022/04/03 05:13:59;;;;;;;2.97;0.65;;;1.30;99.90;;;;;;4987335;28;20404;-66
2022/04/03 05:16:25;;;;;;;1.80;0.60;;;1.20;99.90;;;;;;5002912;28;20067;-67
2022/04/03 05:18:52;;;;;;;1.50;0.50;;;1.20;99.90;;;;;;4988682;28;20042;-66
2022/04/03 05:21:18;;;;;;;0.57;0.52;;;1.30;99.90;;;;;;4987351;28;20050;-67
2022/04/03 05:23:44;;;;;;;0.50;0.50;;;1.30;99.90;;;;;;4986971;28;20038;-67
2022/04/03 05:26:10;;;;;;;2.55;0.57;;;1.40;99.90;;;;;;4984490;28;20669;-67
2022/04/03 05:28:36;;;;;;;0.70;0.63;;;1.40;99.90;;;;;;4987194;28;20050;-66
2022/04/03 05:31:03;;;;;;;0.30;0.30;;;1.50;99.90;;;;;;4985042;28;20488;-66
2022/04/03 05:33:29;;;;;;;3.25;0.77;;;1.50;99.90;;;;;;4986368;28;20097;-66
2022/04/03 05:35:54;;;;;;;1.25;0.38;;;1.50;99.90;;;;;;4987140;28;20058;-67
2022/04/03 05:38:20;;;;;;;0.75;0.35;;;1.50;99.90;;;;;;4986242;28;20043;-66
2022/04/03 05:40:46;;;;;;;1.75;0.57;;;1.50;99.90;;;;;;5001750;28;20075;-66
2022/04/03 05:43:12;;;;;;;1.17;0.60;;;1.50;99.90;;;;;;4986030;28;20381;-66
2022/04/03 05:45:42;;;;;;;3.17;0.70;;;1.50;99.90;;;;;;4987942;28;20042;-66
2022/04/03 05:48:08;;;;;;;1.48;0.80;;;1.60;99.90;;;;;;4984865;28;20094;-66
2022/04/03 05:50:35;;;;;;;3.05;0.70;;;1.60;99.90;;;;;;4986442;28;20440;-67
2022/04/03 05:53:01;;;;;;;2.63;0.85;;;1.60;99.90;;;;;;5016171;28;20492;-66
2022/04/03 05:55:27;;;;;;;1.50;0.70;;;1.60;99.90;;;;;;5002250;28;20045;-67
2022/04/03 05:57:53;;;;;;;4.05;0.88;;;1.60;99.90;;;;;;5019632;28;20061;-66
2022/04/03 06:00:22;;;;;;;2.28;0.75;;;1.60;99.90;;;;;;4985069;28;20485;-67
2022/04/03 06:02:59;;;;;;;1.55;0.80;;;1.60;99.90;;;;;;4987622;28;20053;-67
2022/04/03 06:05:34;;;;;;;2.00;0.93;;;1.50;99.90;;;;;;4985007;28;20137;-67
2022/04/03 06:08:03;;;;;;;4.97;0.73;;;1.80;99.90;;;;;;4986941;28;20035;-67
2022/04/03 06:10:29;;;;;;;1.17;0.70;;;2.30;99.90;;;;;;5002001;28;20148;-67
2022/04/03 06:12:59;;;;;;;6.95;1.05;;;2.60;99.90;;;;;;4993294;28;20409;-67
2022/04/03 06:15:28;;;;;;;3.33;1.05;;;2.90;99.90;;;;;;5007526;28;20133;-67
2022/04/03 06:17:54;;;;;;;4.63;1.00;;;3.10;99.90;;;;;;5004268;28;20124;-67
2022/04/03 06:20:21;;;;;;;3.35;1.20;;;2.90;99.90;;;;;;5005306;28;20049;-67
2022/04/03 06:22:47;;;;;;;3.35;1.15;;;2.90;99.90;;;;;;5000570;28;20050;-66
2022/04/03 06:25:14;;;;;;;4.38;1.00;;;3.00;99.90;;;;;;4986047;28;20479;-67
2022/04/03 06:27:40;;;;;;;3.00;1.00;;;3.10;99.90;;;;;;4985427;28;20042;-67
2022/04/03 06:30:06;;;;;;;3.08;0.80;;;3.30;99.90;;;;;;4984889;28;20161;-67
2022/04/03 06:32:32;;;;;;;3.88;1.10;;;3.50;99.90;;;;;;4987289;28;20050;-67
2022/04/03 06:34:57;;;;;;;3.40;0.75;;;3.90;99.90;;;;;;4986958;28;20134;-67
2022/04/03 06:37:23;;;;;;;5.45;0.75;;;4.20;99.90;;;;;;4969622;28;20049;-66
2022/04/03 06:39:49;;;;;;;4.30;0.90;;;4.50;99.90;;;;;;4968109;28;20101;-67
2022/04/03 06:42:15;;;;;;;1.50;0.68;;;4.60;99.90;;;;;;4985853;28;20046;-67
2022/04/03 06:44:41;;;;;;;4.22;0.80;;;4.60;99.90;;;;;;4985564;28;20046;-67
2022/04/03 06:47:07;;;;;;;3.42;0.80;;;4.50;99.90;;;;;;4985629;28;20414;-67
2022/04/03 06:49:33;;;;;;;2.47;0.90;;;4.50;99.90;;;;;;4971097;28;20069;-67
2022/04/03 06:51:59;;;;;;;1.08;1.02;;;4.60;99.90;;;;;;5005082;28;20046;-66
2022/04/03 06:54:25;;;;;;;8.90;1.02;;;4.50;99.90;;;;;;4990621;28;20408;-67
2022/04/03 06:56:54;;;;;;;2.63;0.70;;;4.40;99.90;;;;;;4987905;28;20046;-67
2022/04/03 06:59:20;;;;;;;5.88;0.90;;;4.40;99.90;;;;;;5004582;28;20287;-67
2022/04/03 07:01:49;;;;;;;4.50;1.10;;;4.40;99.90;;;;;;4993727;28;20402;-66
2022/04/03 07:04:14;;;;;;;3.72;1.20;;;4.50;99.90;;;;;;4990564;28;20042;-66
2022/04/03 07:06:40;;;;;;;4.25;0.70;;;4.70;99.90;;;;;;4988495;28;20392;-67
2022/04/03 07:09:06;;;;;;;2.72;0.63;;;4.80;99.90;;;;;;4998688;28;20525;-66
2022/04/03 07:11:31;;;;;;;4.60;0.82;;;5.00;99.90;;;;;;4996980;28;20053;-67
2022/04/03 07:13:57;;;;;;;2.42;0.70;;;4.90;99.90;;;;;;4989358;28;20144;-66
2022/04/03 07:16:23;;;;;;;1.85;0.73;;;4.80;99.90;;;;;;4990007;28;20054;-67
2022/04/03 07:18:49;;;;;;;6.00;1.35;;;4.70;99.90;;;;;;4993427;28;20065;-67
2022/04/03 07:21:15;;;;;;;3.40;1.02;;;4.70;99.90;;;;;;5010107;28;20061;-67
2022/04/03 07:23:40;;;;;;;5.72;1.02;;;4.60;99.90;;;;;;5007439;28;20057;-67
2022/04/03 07:26:07;;;;;;;6.18;1.30;;;4.50;99.90;;;;;;5009579;28;20619;-67
2022/04/03 07:28:33;;;;;;;2.83;1.10;;;4.40;99.90;;;;;;5009685;28;20420;-67
2022/04/03 07:30:59;;;;;;;5.28;1.05;;;4.50;99.90;;;;;;5003771;28;20495;-67
2022/04/03 07:33:25;;;;;;;3.67;1.15;;;4.60;99.90;;;;;;5008337;28;20053;-67
2022/04/03 07:35:53;;;;;;;7.43;1.65;;;4.70;99.90;;;;;;4987170;28;20065;-66
2022/04/03 07:38:19;;;;;;;9.63;1.52;;;4.70;99.90;;;;;;4972025;28;20073;-67
2022/04/03 07:40:46;;;;;;;2.25;1.10;;;4.80;99.90;;;;;;4986690;28;20043;-67
2022/04/03 07:43:18;;;;;;;10.88;1.75;;;4.90;99.90;;;;;;4972326;28;20320;-67
2022/04/03 07:45:45;;;;;;;7.18;1.30;;;5.00;99.90;;;;;;4988777;28;20453;-67
2022/04/03 07:48:11;;;;;;;4.45;1.13;;;5.10;99.90;;;;;;4987497;28;20420;-67
2022/04/03 07:50:37;;;;;;;5.70;1.80;;;5.10;99.90;;;;;;4988091;28;20050;-67
2022/04/03 07:53:05;;;;;;;7.25;1.30;;;5.10;99.90;;;;;;5001073;28;20051;-67
2022/04/03 07:55:31;;;;;;;9.80;1.85;;;5.10;99.90;;;;;;5021267;28;20043;-67
2022/04/03 07:57:57;;;;;;;7.38;1.55;;;5.10;99.90;;;;;;4987330;28;20072;-67
2022/04/03 08:00:23;;;;;;;9.20;1.55;;;5.20;99.90;;;;;;4989187;28;20046;-67
2022/04/03 08:02:48;;;;;;;3.63;1.20;;;5.40;99.90;;;;;;5019619;28;20053;-67
2022/04/03 08:05:14;;;;;;;3.85;1.00;;;5.70;99.90;;;;;;5019828;28;20076;-68
2022/04/03 08:07:45;;;;;;;6.78;1.08;;;5.80;99.90;;;;;;4988252;28;20049;-68
2022/04/03 08:10:13;;;;;;;6.78;1.00;;;6.00;99.90;;;;;;4987281;28;20076;-67
2022/04/03 08:12:41;;;;;;;5.47;0.88;;;6.20;99.90;;;;;;4986416;28;20652;-67
2022/04/03 08:15:08;;;;;;;4.95;1.30;;;6.10;99.90;;;;;;4984756;28;20115;-67
2022/04/03 08:17:35;;;;;;;6.97;0.75;;;6.00;99.90;;;;;;4986491;28;20061;-67
2022/04/03 08:20:01;;;;;;;5.45;1.00;;;6.20;99.90;;;;;;5018090;28;20048;-67
2022/04/03 08:25:08;;;;;;;7.05;1.15;;;6.60;99.90;;;;;;4993734;28;20046;-95
2022/04/03 08:27:44;;;;;;;2.83;0.63;;;6.80;99.90;;;;;;4993802;28;20482;-94
2022/04/03 08:30:13;;;;;;;3.15;0.68;;;7.00;99.90;;;;;;5010006;28;20038;-96
2022/04/03 08:32:43;;;;;;;7.72;1.73;;;7.10;99.90;;;;;;5029051;28;20046;-94
2022/04/03 08:35:11;;;;;;;;;;;7.20;99.90;;;;;;5000054;28;20054;-96
2022/04/03 08:37:48;;;;;;;8.07;0.93;;;7.20;99.90;;;;;;4986988;28;19971;-95
2022/04/03 08:40:38;;;;;;;;;;;7.40;99.90;;;;;;5014722;28;20099;-96
2022/04/03 08:43:10;;;;;;;8.80;1.25;;;7.50;99.90;;;;;;5029785;28;20036;-96
2022/04/03 08:45:47;;;;;;;5.00;0.80;;;7.40;99.90;;;;;;4996707;28;20120;-95
2022/04/03 08:48:19;;;;;;;6.32;1.23;;;7.20;99.90;;;;;;4980498;28;20103;-96
2022/04/03 08:51:32;;;;;;;6.97;0.97;;;7.30;99.90;;;;;;5012636;28;20057;-95
2022/04/03 08:54:04;;;;;;;1.25;0.40;;;7.40;99.90;;;;;;4973958;28;20050;-94
2022/04/03 08:56:36;;;;;;;5.10;0.98;;;7.50;99.90;;;;;;4996147;28;20035;-96
2022/04/03 08:59:21;;;;;;;6.78;1.27;;;7.60;99.90;;;;;;4939124;29;20106;-95
2022/04/03 09:06:05;;;;;;;7.78;1.33;;;7.70;99.90;;;;;;4899739;29;19926;-96
2022/04/03 09:13:41;;;;;;;5.75;1.05;;;7.70;99.90;;;;;;4858896;29;20134;-96
2022/04/03 09:28:21;;;;;;;3.70;1.30;;;7.80;99.90;;;;;;4788125;30;20050;-96
2022/04/03 09:32:36;;;;;;;;;;;;;;;;;;;;;
2022/04/03 09:39:58;;;;;;;;;;;;;;;;;;;;;
2022/04/03 09:50:25;;;;;;;;;;;;;;;;;;;;;
2022/04/03 09:57:35;;;;;;;;;;;8.50;97.00;;;;;;4878993;29;20067;-94
2022/04/03 10:01:28;;;;;;;;;;;;;;;;;;;;;
2022/04/03 10:07:42;;;;;;;5.97;0.85;;;8.80;95.40;;;;;;4938226;29;20042;-94
2022/04/03 10:10:23;;;;;;;6.18;1.08;;;8.90;94.30;;;;;;4920081;29;20036;-95
2022/04/03 10:13:10;;;;;;;3.10;0.73;;;9.10;96.50;;;;;;4904096;29;20052;-96
2022/04/03 10:15:42;;;;;;;3.28;0.80;;;9.10;93.70;;;;;;4917554;29;20076;-94
2022/04/03 10:26:06;;;;;;;3.75;0.60;;;9.60;91.10;;;;;;4878158;29;20057;-94
2022/04/03 10:29:28;;;;;;;4.28;1.10;;;9.30;87.30;;;;;;4846877;29;20160;-95
2022/04/03 10:32:50;;;;;;;1.65;0.80;;;9.30;96.20;;;;;;4862906;29;20117;-96
2022/04/03 10:38:47;;;;;;;5.40;1.00;;;8.90;95.70;;;;;;4847667;29;20058;-94
2022/04/03 11:00:44;;;;;;;3.97;0.80;;;8.90;94.90;;;;;;4851377;29;20044;-93
2022/04/03 11:10:57;;;;;;;4.38;0.77;;;7.80;95.20;;;;;;4933718;29;20046;-96
2022/04/03 11:13:53;;;;;;;3.70;0.73;;;8.30;95.80;;;;;;4987968;28;20042;-96
2022/04/03 11:16:50;;;;;;;0.65;0.40;;;8.10;92.20;;;;;;4995338;28;20054;-96
2022/04/03 11:20:04;;;;;;;4.68;0.95;;;8.10;99.90;;;;;;4946548;28;20051;-95
2022/04/03 11:22:36;;;;;;;3.30;1.33;;;8.00;97.20;;;;;;4982213;28;20046;-96
2022/04/03 11:25:08;;;;;;;5.90;0.95;;;7.60;97.20;;;;;;4977436;28;20093;-95
2022/04/03 11:31:35;;;;;;;4.57;1.38;;;7.30;99.90;;;;;;4935429;28;20042;-96
2022/04/03 11:34:56;;;;;;;3.28;0.88;;;7.10;99.90;;;;;;4978644;28;20042;-96
2022/04/03 11:38:22;;;;;;;6.00;0.80;;;7.10;99.90;;;;;;4981299;28;20049;-96
2022/04/03 11:41:53;;;;;;;3.10;0.80;;;7.30;99.90;;;;;;4896026;29;20052;-96
2022/04/03 11:44:21;;;;;;;3.25;0.47;;;7.90;99.00;;;;;;4898561;29;20484;-94
2022/04/03 11:47:25;;;;;;;4.35;0.88;;;8.30;91.90;;;;;;4989644;28;20054;-95
2022/04/03 11:50:23;;;;;;;4.28;1.00;;;8.40;94.10;;;;;;4997543;28;20037;-95
2022/04/03 11:53:41;;;;;;;2.58;0.52;;;8.40;92.60;;;;;;4996617;28;20054;-95
2022/04/03 11:56:35;;;;;;;2.83;0.43;;;8.20;94.70;;;;;;4998162;28;20612;-94
2022/04/03 11:59:44;;;;;;;2.92;0.60;;;8.00;94.80;;;;;;5000489;28;20091;-95
2022/04/03 12:02:47;;;;;;;1.55;0.40;;;8.10;94.10;;;;;;4982136;28;20049;-96
2022/04/03 12:05:30;;;;;;;5.03;0.77;;;8.20;91.70;;;;;;4981609;28;20501;-96
2022/04/03 12:08:12;;;;;;;3.13;0.52;;;7.80;94.00;;;;;;4997758;28;20033;-94
2022/04/03 12:11:29;;;;;;;;;;;;;;;;;;;;;
2022/04/03 12:14:57;;;;;;;;;;;;;;;;;;;;;
2022/04/03 12:18:03;;;;;;;4.85;0.70;;;7.80;91.70;;;;;;4997087;28;20435;-95
2022/04/03 12:20:36;;;;;;;1.60;0.70;;;8.20;96.70;;;;;;4983918;28;20042;-94
2022/04/03 12:23:32;;;;;;;5.80;0.75;;;8.50;92.80;;;;;;4982698;28;20056;-95
2022/04/03 12:27:14;;;;;;;;;;;;;;;;;;;;;
2022/04/03 12:30:08;;;;;;;3.40;0.73;;;8.20;88.60;;;;;;5001117;28;20100;-94
2022/04/03 12:32:43;;;;;;;1.60;0.70;;;8.20;93.20;;;;;;5010649;28;20112;-93
2022/04/03 12:35:11;;;;;;;3.17;0.60;;;8.70;94.40;;;;;;4968248;28;20047;-95
2022/04/03 12:37:42;;;;;;;3.75;0.45;;;9.30;89.90;;;;;;4957245;28;20046;-94
2022/04/03 12:40:55;;;;;;;3.40;0.60;;;9.50;82.50;;;;;;4958296;28;20046;-93
2022/04/03 12:46:49;;;;;;;4.60;0.60;;;9.30;74.10;;;;;;4893476;28;20047;-95
2022/04/03 12:49:19;;;;;;;4.05;0.65;;;9.30;90.90;;;;;;4956364;28;20126;-95
2022/04/03 12:52:09;;;;;;;4.40;0.90;;;9.10;81.20;;;;;;4956576;28;20047;-95
2022/04/03 13:03:13;;;;;;;5.70;0.70;;;7.30;95.80;;;;;;4922706;29;20580;-95
2022/04/03 13:10:15;;;;;;;1.95;0.65;;;7.60;99.90;;;;;;4875655;29;20044;-95
2022/04/03 13:13:47;;;;;;;5.45;0.60;;;8.50;96.60;;;;;;4893496;29;20061;-96
2022/04/03 13:16:35;;;;;;;3.28;0.88;;;9.20;97.00;;;;;;4861933;29;20176;-96
2022/04/03 13:19:37;;;;;;;3.15;0.52;;;8.70;92.40;;;;;;4877309;29;20045;-95
2022/04/03 13:22:17;;;;;;;4.93;0.90;;;8.30;96.90;;;;;;4862476;29;20095;-95
2022/04/03 13:24:50;;;;;;;2.35;0.70;;;8.10;97.70;;;;;;4862165;29;20053;-96
2022/04/03 13:27:36;;;;;;;2.75;0.60;;;8.50;97.30;;;;;;4862319;29;20049;-95
2022/04/03 13:30:50;;;;;;;;;;;;;;;;;;;;;
2022/04/03 13:34:08;;;;;;;5.15;0.77;;;8.00;96.10;;;;;;4858754;29;20185;-95
2022/04/03 13:37:07;;;;;;;;;;;;;;;;;;;;;
2022/04/03 13:39:36;;;;;;;5.00;0.60;;;7.90;92.10;;;;;;4914087;29;20058;-94
2022/04/03 13:52:24;;;;;;;1.70;0.32;;;8.90;88.40;;;;;;5000735;28;20061;-94
2022/04/03 13:54:54;;;;;;;2.58;0.80;;;9.10;76.90;;;;;;4970375;28;20042;-94
2022/04/03 14:20:11;;;;;;;2.60;0.80;;;9.20;91.20;;;;;;4821735;29;20050;-96
2022/04/03 14:23:21;;;;;;;2.60;0.73;;;9.40;92.80;;;;;;4806009;29;20058;-96
2022/04/03 14:32:48;;;;;;;9.10;0.93;;;9.00;99.10;;;;;;4815598;29;20130;-94
2022/04/03 14:57:47;;;;;;;2.60;1.08;;;8.60;99.10;;;;;;4880045;29;20061;-96
2022/04/03 15:00:49;;;;;;;7.32;0.90;;;8.30;97.90;;;;;;4892514;29;20178;-96
2022/04/03 15:15:33;;;;;;;2.83;0.90;;;7.80;99.40;;;;;;4877299;29;20073;-96
2022/04/03 15:34:12;;;;;;;6.05;1.10;;;7.80;93.90;;;;;;4824874;29;20066;-95
2022/04/03 15:36:54;;;;;;;3.15;1.10;;;7.50;97.20;;;;;;4882409;29;20055;-95
2022/04/03 15:40:03;;;;;;;1.80;1.10;;;7.40;99.50;;;;;;4898787;29;20158;-95
2022/04/03 15:42:37;;;;;;;3.83;1.65;;;7.30;99.90;;;;;;4895328;29;20195;-93
2022/04/03 15:45:04;;;;;;;5.65;1.15;;;7.10;99.90;;;;;;4949102;29;20043;-94
2022/04/03 16:09:56;;;;;;;1.65;0.73;;;7.60;94.10;;;;;;4914165;29;20043;-93
2022/04/03 16:16:16;;;;;;;5.55;1.10;;;7.60;95.40;;;;;;4883012;29;20112;-95
2022/04/03 16:18:43;;;;;;;2.30;0.75;;;7.70;97.00;;;;;;4855222;29;20049;-94
2022/04/03 16:21:31;;;;;;;1.42;0.73;;;7.80;97.20;;;;;;4913077;29;20048;-95
2022/04/03 16:25:17;;;;;;;2.65;0.90;;;7.90;98.30;;;;;;4914710;29;20055;-95
2022/04/03 16:28:57;;;;;;;5.45;0.68;;;7.90;96.30;;;;;;4859905;29;20052;-95
2022/04/03 16:32:27;;;;;;;4.93;0.95;;;7.90;91.70;;;;;;4888445;29;20091;-94
2022/04/03 16:35:33;;;;;;;3.00;0.90;;;7.60;96.90;;;;;;4917672;29;20048;-95
2022/04/03 16:38:12;;;;;;;2.47;0.60;;;7.40;95.90;;;;;;4902703;29;20545;-94
2022/04/03 16:45:34;;;;;;;1.38;0.68;;;7.40;97.20;;;;;;4891755;29;20060;-94
2022/04/03 17:06:18;;;;;;;3.67;1.10;;;7.20;99.90;;;;;;4954819;29;20142;-95
2022/04/03 17:09:23;;;;;;;4.38;1.13;;;7.20;99.90;;;;;;4919889;29;20071;-95
2022/04/03 17:16:28;;;;;;;5.78;1.10;;;7.20;99.90;;;;;;4961093;28;20543;-95
2022/04/03 17:23:29;;;;;;;4.07;0.90;;;6.90;99.90;;;;;;5015088;28;20112;-93
2022/04/03 17:30:11;;;;;;;3.50;0.88;;;6.80;99.90;;;;;;4985806;28;20129;-93
2022/04/03 17:32:41;;;;;;;4.57;1.00;;;6.60;99.90;;;;;;4966800;28;20046;-93
2022/04/03 17:38:50;;;;;;;2.58;0.93;;;6.40;99.90;;;;;;4978434;28;20054;-92
2022/04/03 17:42:16;;;;;;;4.25;0.80;;;6.30;99.90;;;;;;4975783;28;20081;-95
2022/04/03 17:45:26;;;;;;;3.78;0.90;;;6.10;99.90;;;;;;4974872;28;20050;-94
2022/04/03 17:51:32;;;;;;;3.60;0.80;;;5.80;99.90;;;;;;4969669;28;20141;-93
2022/04/03 17:54:47;;;;;;;8.32;1.63;;;5.70;99.90;;;;;;4938188;29;20113;-95
2022/04/03 17:57:57;;;;;;;4.43;0.80;;;5.60;99.90;;;;;;4937065;28;20057;-95
2022/04/03 18:01:03;;;;;;;5.78;1.35;;;5.50;99.90;;;;;;4958854;28;20097;-94
2022/04/03 18:04:25;;;;;;;7.57;1.40;;;5.50;99.90;;;;;;4957553;28;20061;-94
2022/04/03 18:07:50;;;;;;;4.70;1.00;;;5.40;99.90;;;;;;4943054;28;20097;-94
2022/04/03 18:22:34;;;;;;;3.92;1.17;;;5.20;99.90;;;;;;4988749;28;20049;-94